sensor_id;sensor_type;location;lat;lon;timestamp;P1;durP1;ratioP1;P2;durP2;ratioP2
26082;SDS011;13848;49.018;12.078;2023-12-07T00:00:45;15.93;;;9.48;;
26082;SDS011;13848;49.018;12.078;2023-12-07T00:03:11;18.20;;;10.10;;
26082;SDS011;13848;49.018;12.078;2023-12-07T00:05:37;17.95;;;10.40;;
26082;SDS011;13848;49.018;12.078;2023-12-07T00:08:03;17.52;;;10.10;;
26082;SDS011;13848;49.018;12.078;2023-12-07T00:10:29;15.07;;;8.82;;
26082;SDS011;13848;49.018;12.078;2023-12-07T00:12:55;14.13;;;8.98;;
26082;SDS011;13848;49.018;12.078;2023-12-07T00:15:22;14.15;;;8.93;;
26082;SDS011;13848;49.018;12.078;2023-12-07T00:17:48;16.08;;;8.70;;
26082;SDS011;13848;49.018;12.078;2023-12-07T00:20:14;15.70;;;9.50;;
26082;SDS011;13848;49.018;12.078;2023-12-07T00:22:40;17.45;;;9.50;;
26082;SDS011;13848;49.018;12.078;2023-12-07T00:25:06;15.50;;;9.45;;
26082;SDS011;13848;49.018;12.078;2023-12-07T00:27:32;15.57;;;9.52;;
26082;SDS011;13848;49.018;12.078;2023-12-07T00:29:58;14.40;;;8.98;;
26082;SDS011;13848;49.018;12.078;2023-12-07T00:32:26;17.67;;;9.43;;
26082;SDS011;13848;49.018;12.078;2023-12-07T00:34:52;16.52;;;9.13;;
26082;SDS011;13848;49.018;12.078;2023-12-07T00:37:18;15.65;;;9.15;;
26082;SDS011;13848;49.018;12.078;2023-12-07T00:39:44;15.50;;;9.65;;
26082;SDS011;13848;49.018;12.078;2023-12-07T00:42:09;14.75;;;8.70;;
26082;SDS011;13848;49.018;12.078;2023-12-07T00:44:38;15.00;;;9.43;;
26082;SDS011;13848;49.018;12.078;2023-12-07T00:47:05;17.20;;;9.70;;
26082;SDS011;13848;49.018;12.078;2023-12-07T00:49:32;20.05;;;9.50;;
26082;SDS011;13848;49.018;12.078;2023-12-07T00:51:58;14.13;;;9.02;;
26082;SDS011;13848;49.018;12.078;2023-12-07T00:54:24;16.20;;;9.40;;
26082;SDS011;13848;49.018;12.078;2023-12-07T00:56:50;14.48;;;8.88;;
26082;SDS011;13848;49.018;12.078;2023-12-07T00:59:15;15.82;;;9.43;;
26082;SDS011;13848;49.018;12.078;2023-12-07T01:01:41;15.10;;;9.80;;
26082;SDS011;13848;49.018;12.078;2023-12-07T01:04:07;15.07;;;9.38;;
26082;SDS011;13848;49.018;12.078;2023-12-07T01:06:35;17.05;;;9.07;;
26082;SDS011;13848;49.018;12.078;2023-12-07T01:09:01;16.17;;;9.98;;
26082;SDS011;13848;49.018;12.078;2023-12-07T01:11:26;17.98;;;9.93;;
26082;SDS011;13848;49.018;12.078;2023-12-07T01:13:52;18.20;;;9.93;;
26082;SDS011;13848;49.018;12.078;2023-12-07T01:16:18;16.13;;;9.43;;
26082;SDS011;13848;49.018;12.078;2023-12-07T01:18:44;14.57;;;9.73;;
26082;SDS011;13848;49.018;12.078;2023-12-07T01:21:10;20.08;;;10.23;;
26082;SDS011;13848;49.018;12.078;2023-12-07T01:23:37;22.17;;;9.77;;
26082;SDS011;13848;49.018;12.078;2023-12-07T01:26:03;18.50;;;9.43;;
26082;SDS011;13848;49.018;12.078;2023-12-07T01:28:29;16.52;;;9.23;;
26082;SDS011;13848;49.018;12.078;2023-12-07T01:30:55;17.83;;;9.25;;
26082;SDS011;13848;49.018;12.078;2023-12-07T01:33:21;17.58;;;10.20;;
26082;SDS011;13848;49.018;12.078;2023-12-07T01:35:47;17.50;;;10.15;;
26082;SDS011;13848;49.018;12.078;2023-12-07T01:38:13;15.38;;;9.20;;
26082;SDS011;13848;49.018;12.078;2023-12-07T01:40:40;17.45;;;10.15;;
26082;SDS011;13848;49.018;12.078;2023-12-07T01:43:06;17.05;;;9.32;;
26082;SDS011;13848;49.018;12.078;2023-12-07T01:45:32;16.98;;;9.63;;
26082;SDS011;13848;49.018;12.078;2023-12-07T01:47:58;15.65;;;9.27;;
26082;SDS011;13848;49.018;12.078;2023-12-07T01:50:24;14.07;;;9.13;;
26082;SDS011;13848;49.018;12.078;2023-12-07T01:52:52;15.40;;;9.73;;
26082;SDS011;13848;49.018;12.078;2023-12-07T01:55:23;15.73;;;9.45;;
26082;SDS011;13848;49.018;12.078;2023-12-07T01:57:51;16.13;;;9.65;;
26082;SDS011;13848;49.018;12.078;2023-12-07T02:00:17;18.75;;;9.95;;
26082;SDS011;13848;49.018;12.078;2023-12-07T02:02:43;16.23;;;9.52;;
26082;SDS011;13848;49.018;12.078;2023-12-07T02:05:09;16.83;;;10.18;;
26082;SDS011;13848;49.018;12.078;2023-12-07T02:07:35;17.17;;;10.30;;
26082;SDS011;13848;49.018;12.078;2023-12-07T02:10:01;16.90;;;10.20;;
26082;SDS011;13848;49.018;12.078;2023-12-07T02:12:28;17.13;;;9.57;;
26082;SDS011;13848;49.018;12.078;2023-12-07T02:14:56;16.95;;;10.43;;
26082;SDS011;13848;49.018;12.078;2023-12-07T02:17:24;19.75;;;10.20;;
26082;SDS011;13848;49.018;12.078;2023-12-07T02:19:56;18.88;;;10.07;;
26082;SDS011;13848;49.018;12.078;2023-12-07T02:22:27;17.38;;;9.25;;
26082;SDS011;13848;49.018;12.078;2023-12-07T02:25:04;16.70;;;9.55;;
26082;SDS011;13848;49.018;12.078;2023-12-07T02:27:37;16.92;;;10.18;;
26082;SDS011;13848;49.018;12.078;2023-12-07T02:30:04;18.88;;;10.45;;
26082;SDS011;13848;49.018;12.078;2023-12-07T02:32:31;15.40;;;9.52;;
26082;SDS011;13848;49.018;12.078;2023-12-07T02:34:58;17.10;;;9.60;;
26082;SDS011;13848;49.018;12.078;2023-12-07T02:37:24;15.48;;;9.43;;
26082;SDS011;13848;49.018;12.078;2023-12-07T02:39:54;18.30;;;10.35;;
26082;SDS011;13848;49.018;12.078;2023-12-07T02:42:21;17.02;;;10.00;;
26082;SDS011;13848;49.018;12.078;2023-12-07T02:44:51;17.63;;;10.40;;
26082;SDS011;13848;49.018;12.078;2023-12-07T02:47:18;17.92;;;9.90;;
26082;SDS011;13848;49.018;12.078;2023-12-07T02:49:44;16.00;;;9.50;;
26082;SDS011;13848;49.018;12.078;2023-12-07T02:52:10;17.75;;;9.88;;
26082;SDS011;13848;49.018;12.078;2023-12-07T02:54:36;13.48;;;8.80;;
26082;SDS011;13848;49.018;12.078;2023-12-07T02:57:02;18.30;;;10.43;;
26082;SDS011;13848;49.018;12.078;2023-12-07T02:59:28;18.95;;;10.52;;
26082;SDS011;13848;49.018;12.078;2023-12-07T03:01:55;18.33;;;10.10;;
26082;SDS011;13848;49.018;12.078;2023-12-07T03:04:21;17.08;;;9.15;;
26082;SDS011;13848;49.018;12.078;2023-12-07T03:06:47;18.27;;;10.45;;
26082;SDS011;13848;49.018;12.078;2023-12-07T03:09:13;18.75;;;10.10;;
26082;SDS011;13848;49.018;12.078;2023-12-07T03:11:39;19.50;;;10.48;;
26082;SDS011;13848;49.018;12.078;2023-12-07T03:14:05;17.95;;;10.57;;
26082;SDS011;13848;49.018;12.078;2023-12-07T03:16:31;15.40;;;9.65;;
26082;SDS011;13848;49.018;12.078;2023-12-07T03:18:58;16.02;;;9.75;;
26082;SDS011;13848;49.018;12.078;2023-12-07T03:21:26;19.08;;;9.95;;
26082;SDS011;13848;49.018;12.078;2023-12-07T03:23:52;17.50;;;10.00;;
26082;SDS011;13848;49.018;12.078;2023-12-07T03:26:18;16.80;;;9.80;;
26082;SDS011;13848;49.018;12.078;2023-12-07T03:28:44;17.85;;;9.63;;
26082;SDS011;13848;49.018;12.078;2023-12-07T03:31:09;16.05;;;9.00;;
26082;SDS011;13848;49.018;12.078;2023-12-07T03:33:35;17.65;;;10.45;;
26082;SDS011;13848;49.018;12.078;2023-12-07T03:36:03;15.73;;;9.30;;
26082;SDS011;13848;49.018;12.078;2023-12-07T03:38:30;14.82;;;9.77;;
26082;SDS011;13848;49.018;12.078;2023-12-07T03:40:56;16.30;;;9.65;;
26082;SDS011;13848;49.018;12.078;2023-12-07T03:43:22;17.08;;;10.07;;
26082;SDS011;13848;49.018;12.078;2023-12-07T03:45:48;18.52;;;10.23;;
26082;SDS011;13848;49.018;12.078;2023-12-07T03:48:13;16.50;;;10.38;;
26082;SDS011;13848;49.018;12.078;2023-12-07T03:50:39;16.10;;;9.75;;
26082;SDS011;13848;49.018;12.078;2023-12-07T03:53:07;18.33;;;10.43;;
26082;SDS011;13848;49.018;12.078;2023-12-07T03:55:33;15.40;;;9.93;;
26082;SDS011;13848;49.018;12.078;2023-12-07T03:57:58;16.25;;;10.23;;
26082;SDS011;13848;49.018;12.078;2023-12-07T04:00:24;19.10;;;10.60;;
26082;SDS011;13848;49.018;12.078;2023-12-07T04:02:50;16.45;;;10.05;;
26082;SDS011;13848;49.018;12.078;2023-12-07T04:05:16;16.90;;;9.90;;
26082;SDS011;13848;49.018;12.078;2023-12-07T04:07:42;18.90;;;10.05;;
26082;SDS011;13848;49.018;12.078;2023-12-07T04:10:10;17.30;;;9.95;;
26082;SDS011;13848;49.018;12.078;2023-12-07T04:12:36;19.40;;;9.70;;
26082;SDS011;13848;49.018;12.078;2023-12-07T04:15:02;18.42;;;9.90;;
26082;SDS011;13848;49.018;12.078;2023-12-07T04:17:28;16.80;;;9.63;;
26082;SDS011;13848;49.018;12.078;2023-12-07T04:19:54;16.77;;;9.57;;
26082;SDS011;13848;49.018;12.078;2023-12-07T04:22:20;14.32;;;9.32;;
26082;SDS011;13848;49.018;12.078;2023-12-07T04:24:46;15.30;;;9.32;;
26082;SDS011;13848;49.018;12.078;2023-12-07T04:27:13;16.58;;;10.00;;
26082;SDS011;13848;49.018;12.078;2023-12-07T04:29:39;18.00;;;10.13;;
26082;SDS011;13848;49.018;12.078;2023-12-07T04:32:06;15.98;;;9.48;;
26082;SDS011;13848;49.018;12.078;2023-12-07T04:34:33;16.88;;;9.68;;
26082;SDS011;13848;49.018;12.078;2023-12-07T04:36:59;19.67;;;10.02;;
26082;SDS011;13848;49.018;12.078;2023-12-07T04:39:25;15.82;;;9.48;;
26082;SDS011;13848;49.018;12.078;2023-12-07T04:41:51;17.17;;;9.23;;
26082;SDS011;13848;49.018;12.078;2023-12-07T04:44:19;17.13;;;10.13;;
26082;SDS011;13848;49.018;12.078;2023-12-07T04:46:45;19.25;;;10.35;;
26082;SDS011;13848;49.018;12.078;2023-12-07T04:49:11;17.10;;;10.05;;
26082;SDS011;13848;49.018;12.078;2023-12-07T04:51:36;17.13;;;9.60;;
26082;SDS011;13848;49.018;12.078;2023-12-07T04:54:02;16.10;;;9.80;;
26082;SDS011;13848;49.018;12.078;2023-12-07T04:56:28;17.80;;;10.18;;
26082;SDS011;13848;49.018;12.078;2023-12-07T04:58:54;17.80;;;10.52;;
26082;SDS011;13848;49.018;12.078;2023-12-07T05:01:22;17.73;;;10.15;;
26082;SDS011;13848;49.018;12.078;2023-12-07T05:03:48;17.45;;;10.15;;
26082;SDS011;13848;49.018;12.078;2023-12-07T05:06:13;21.20;;;11.07;;
26082;SDS011;13848;49.018;12.078;2023-12-07T05:08:39;19.00;;;10.57;;
26082;SDS011;13848;49.018;12.078;2023-12-07T05:11:05;15.23;;;9.90;;
26082;SDS011;13848;49.018;12.078;2023-12-07T05:13:32;19.92;;;10.23;;
26082;SDS011;13848;49.018;12.078;2023-12-07T05:15:58;21.35;;;10.90;;
26082;SDS011;13848;49.018;12.078;2023-12-07T05:18:25;15.73;;;9.50;;
26082;SDS011;13848;49.018;12.078;2023-12-07T05:20:51;19.63;;;9.85;;
26082;SDS011;13848;49.018;12.078;2023-12-07T05:23:17;20.80;;;10.68;;
26082;SDS011;13848;49.018;12.078;2023-12-07T05:25:43;16.67;;;9.68;;
26082;SDS011;13848;49.018;12.078;2023-12-07T05:28:09;24.48;;;12.93;;
26082;SDS011;13848;49.018;12.078;2023-12-07T05:30:35;20.60;;;11.27;;
26082;SDS011;13848;49.018;12.078;2023-12-07T05:33:01;19.50;;;11.65;;
26082;SDS011;13848;49.018;12.078;2023-12-07T05:35:28;18.85;;;10.68;;
26082;SDS011;13848;49.018;12.078;2023-12-07T05:37:54;20.90;;;10.68;;
26082;SDS011;13848;49.018;12.078;2023-12-07T05:40:20;19.00;;;10.50;;
26082;SDS011;13848;49.018;12.078;2023-12-07T05:42:47;19.58;;;10.48;;
26082;SDS011;13848;49.018;12.078;2023-12-07T05:45:15;16.63;;;10.70;;
26082;SDS011;13848;49.018;12.078;2023-12-07T05:47:41;21.25;;;11.40;;
26082;SDS011;13848;49.018;12.078;2023-12-07T05:50:07;20.30;;;11.27;;
26082;SDS011;13848;49.018;12.078;2023-12-07T05:52:34;20.08;;;10.48;;
26082;SDS011;13848;49.018;12.078;2023-12-07T05:55:00;20.13;;;11.82;;
26082;SDS011;13848;49.018;12.078;2023-12-07T05:57:26;19.90;;;11.18;;
26082;SDS011;13848;49.018;12.078;2023-12-07T05:59:52;19.90;;;11.40;;
26082;SDS011;13848;49.018;12.078;2023-12-07T06:02:18;18.65;;;10.95;;
26082;SDS011;13848;49.018;12.078;2023-12-07T06:04:44;17.08;;;10.25;;
26082;SDS011;13848;49.018;12.078;2023-12-07T06:07:10;18.27;;;10.57;;
26082;SDS011;13848;49.018;12.078;2023-12-07T06:09:37;18.48;;;10.38;;
26082;SDS011;13848;49.018;12.078;2023-12-07T06:12:03;19.52;;;10.23;;
26082;SDS011;13848;49.018;12.078;2023-12-07T06:14:29;18.70;;;10.70;;
26082;SDS011;13848;49.018;12.078;2023-12-07T06:16:55;20.48;;;11.13;;
26082;SDS011;13848;49.018;12.078;2023-12-07T06:19:21;23.75;;;11.63;;
26082;SDS011;13848;49.018;12.078;2023-12-07T06:21:47;17.80;;;10.30;;
26082;SDS011;13848;49.018;12.078;2023-12-07T06:24:13;19.55;;;11.43;;
26082;SDS011;13848;49.018;12.078;2023-12-07T06:26:40;23.50;;;11.50;;
26082;SDS011;13848;49.018;12.078;2023-12-07T06:29:06;19.83;;;11.65;;
26082;SDS011;13848;49.018;12.078;2023-12-07T06:31:32;18.92;;;10.65;;
26082;SDS011;13848;49.018;12.078;2023-12-07T06:33:58;19.73;;;10.88;;
26082;SDS011;13848;49.018;12.078;2023-12-07T06:36:24;19.33;;;11.52;;
26082;SDS011;13848;49.018;12.078;2023-12-07T06:38:50;24.25;;;12.48;;
26082;SDS011;13848;49.018;12.078;2023-12-07T06:41:16;32.90;;;16.60;;
26082;SDS011;13848;49.018;12.078;2023-12-07T06:43:44;21.38;;;11.30;;
26082;SDS011;13848;49.018;12.078;2023-12-07T06:46:10;20.23;;;12.48;;
26082;SDS011;13848;49.018;12.078;2023-12-07T06:48:37;32.85;;;15.27;;
26082;SDS011;13848;49.018;12.078;2023-12-07T06:51:03;25.08;;;12.55;;
26082;SDS011;13848;49.018;12.078;2023-12-07T06:53:29;20.20;;;12.25;;
26082;SDS011;13848;49.018;12.078;2023-12-07T06:55:55;21.52;;;11.50;;
26082;SDS011;13848;49.018;12.078;2023-12-07T06:58:21;22.40;;;11.48;;
26082;SDS011;13848;49.018;12.078;2023-12-07T07:00:48;24.05;;;11.40;;
26082;SDS011;13848;49.018;12.078;2023-12-07T07:03:14;19.52;;;11.27;;
26082;SDS011;13848;49.018;12.078;2023-12-07T07:05:40;20.45;;;11.43;;
26082;SDS011;13848;49.018;12.078;2023-12-07T07:08:06;19.80;;;11.05;;
26082;SDS011;13848;49.018;12.078;2023-12-07T07:10:32;20.60;;;10.73;;
26082;SDS011;13848;49.018;12.078;2023-12-07T07:12:59;20.60;;;11.60;;
26082;SDS011;13848;49.018;12.078;2023-12-07T07:15:25;24.80;;;12.25;;
26082;SDS011;13848;49.018;12.078;2023-12-07T07:17:52;21.60;;;11.98;;
26082;SDS011;13848;49.018;12.078;2023-12-07T07:20:18;20.70;;;11.90;;
26082;SDS011;13848;49.018;12.078;2023-12-07T07:22:44;18.77;;;11.43;;
26082;SDS011;13848;49.018;12.078;2023-12-07T07:25:10;22.73;;;11.90;;
26082;SDS011;13848;49.018;12.078;2023-12-07T07:27:36;21.38;;;11.98;;
26082;SDS011;13848;49.018;12.078;2023-12-07T07:30:02;21.45;;;11.95;;
26082;SDS011;13848;49.018;12.078;2023-12-07T07:32:28;20.52;;;11.70;;
26082;SDS011;13848;49.018;12.078;2023-12-07T07:34:56;20.52;;;11.88;;
26082;SDS011;13848;49.018;12.078;2023-12-07T07:37:22;17.20;;;11.30;;
26082;SDS011;13848;49.018;12.078;2023-12-07T07:39:48;21.48;;;11.80;;
26082;SDS011;13848;49.018;12.078;2023-12-07T07:42:13;28.52;;;12.30;;
26082;SDS011;13848;49.018;12.078;2023-12-07T07:44:39;23.17;;;12.15;;
26082;SDS011;13848;49.018;12.078;2023-12-07T07:47:05;18.48;;;10.80;;
26082;SDS011;13848;49.018;12.078;2023-12-07T07:49:31;21.70;;;11.18;;
26082;SDS011;13848;49.018;12.078;2023-12-07T07:51:59;27.95;;;14.40;;
26082;SDS011;13848;49.018;12.078;2023-12-07T07:54:25;22.17;;;12.63;;
26082;SDS011;13848;49.018;12.078;2023-12-07T07:56:51;25.88;;;12.52;;
26082;SDS011;13848;49.018;12.078;2023-12-07T07:59:17;21.63;;;11.48;;
26082;SDS011;13848;49.018;12.078;2023-12-07T08:01:43;21.70;;;11.60;;
26082;SDS011;13848;49.018;12.078;2023-12-07T08:04:11;21.27;;;12.05;;
26082;SDS011;13848;49.018;12.078;2023-12-07T08:06:37;23.25;;;13.05;;
26082;SDS011;13848;49.018;12.078;2023-12-07T08:09:04;22.25;;;12.63;;
26082;SDS011;13848;49.018;12.078;2023-12-07T08:11:30;26.65;;;12.20;;
26082;SDS011;13848;49.018;12.078;2023-12-07T08:13:56;20.45;;;11.55;;
26082;SDS011;13848;49.018;12.078;2023-12-07T08:16:22;18.88;;;11.32;;
26082;SDS011;13848;49.018;12.078;2023-12-07T08:18:48;19.33;;;10.93;;
26082;SDS011;13848;49.018;12.078;2023-12-07T08:21:18;20.77;;;11.73;;
26082;SDS011;13848;49.018;12.078;2023-12-07T08:23:44;21.35;;;11.40;;
26082;SDS011;13848;49.018;12.078;2023-12-07T08:26:12;24.67;;;12.68;;
26082;SDS011;13848;49.018;12.078;2023-12-07T08:28:38;21.20;;;12.18;;
26082;SDS011;13848;49.018;12.078;2023-12-07T08:31:04;20.95;;;12.32;;
26082;SDS011;13848;49.018;12.078;2023-12-07T08:33:30;22.77;;;11.88;;
26082;SDS011;13848;49.018;12.078;2023-12-07T08:35:55;24.63;;;12.88;;
26082;SDS011;13848;49.018;12.078;2023-12-07T08:38:21;21.70;;;12.68;;
26082;SDS011;13848;49.018;12.078;2023-12-07T08:40:47;21.15;;;11.80;;
26082;SDS011;13848;49.018;12.078;2023-12-07T08:43:15;24.65;;;12.35;;
26082;SDS011;13848;49.018;12.078;2023-12-07T08:45:41;22.50;;;12.85;;
26082;SDS011;13848;49.018;12.078;2023-12-07T08:48:06;25.63;;;13.73;;
26082;SDS011;13848;49.018;12.078;2023-12-07T08:50:32;25.00;;;12.45;;
26082;SDS011;13848;49.018;12.078;2023-12-07T08:52:58;21.27;;;12.75;;
26082;SDS011;13848;49.018;12.078;2023-12-07T08:55:24;22.23;;;12.73;;
26082;SDS011;13848;49.018;12.078;2023-12-07T08:57:50;21.20;;;12.70;;
26082;SDS011;13848;49.018;12.078;2023-12-07T09:00:19;19.70;;;12.02;;
26082;SDS011;13848;49.018;12.078;2023-12-07T09:02:45;21.52;;;12.43;;
26082;SDS011;13848;49.018;12.078;2023-12-07T09:05:11;20.63;;;12.50;;
26082;SDS011;13848;49.018;12.078;2023-12-07T09:07:37;20.17;;;12.45;;
26082;SDS011;13848;49.018;12.078;2023-12-07T09:10:03;21.10;;;12.05;;
26082;SDS011;13848;49.018;12.078;2023-12-07T09:12:30;23.63;;;12.48;;
26082;SDS011;13848;49.018;12.078;2023-12-07T09:14:56;22.38;;;12.85;;
26082;SDS011;13848;49.018;12.078;2023-12-07T09:17:23;21.13;;;12.52;;
26082;SDS011;13848;49.018;12.078;2023-12-07T09:19:49;17.92;;;11.52;;
26082;SDS011;13848;49.018;12.078;2023-12-07T09:22:15;20.15;;;12.07;;
26082;SDS011;13848;49.018;12.078;2023-12-07T09:24:41;18.30;;;11.85;;
26082;SDS011;13848;49.018;12.078;2023-12-07T09:27:07;17.95;;;11.65;;
26082;SDS011;13848;49.018;12.078;2023-12-07T09:29:33;20.55;;;11.82;;
26082;SDS011;13848;49.018;12.078;2023-12-07T09:31:59;19.58;;;11.75;;
26082;SDS011;13848;49.018;12.078;2023-12-07T09:34:26;17.98;;;11.65;;
26082;SDS011;13848;49.018;12.078;2023-12-07T09:37:04;18.67;;;11.75;;
26082;SDS011;13848;49.018;12.078;2023-12-07T09:39:31;17.48;;;11.85;;
26082;SDS011;13848;49.018;12.078;2023-12-07T09:41:57;16.90;;;10.82;;
26082;SDS011;13848;49.018;12.078;2023-12-07T09:44:23;17.48;;;12.15;;
26082;SDS011;13848;49.018;12.078;2023-12-07T09:46:49;19.45;;;11.18;;
26082;SDS011;13848;49.018;12.078;2023-12-07T09:49:15;16.27;;;11.02;;
26082;SDS011;13848;49.018;12.078;2023-12-07T09:51:42;17.63;;;11.60;;
26082;SDS011;13848;49.018;12.078;2023-12-07T09:54:09;16.85;;;11.02;;
26082;SDS011;13848;49.018;12.078;2023-12-07T09:56:36;17.52;;;11.70;;
26082;SDS011;13848;49.018;12.078;2023-12-07T09:59:02;17.67;;;10.55;;
26082;SDS011;13848;49.018;12.078;2023-12-07T10:01:28;14.82;;;10.15;;
26082;SDS011;13848;49.018;12.078;2023-12-07T10:06:43;15.52;;;10.98;;
26082;SDS011;13848;49.018;12.078;2023-12-07T10:09:09;13.57;;;10.30;;
26082;SDS011;13848;49.018;12.078;2023-12-07T10:11:35;13.95;;;9.88;;
26082;SDS011;13848;49.018;12.078;2023-12-07T10:14:01;15.10;;;10.68;;
26082;SDS011;13848;49.018;12.078;2023-12-07T10:16:27;13.68;;;10.30;;
26082;SDS011;13848;49.018;12.078;2023-12-07T10:18:53;14.50;;;10.07;;
26082;SDS011;13848;49.018;12.078;2023-12-07T10:21:23;12.73;;;9.00;;
26082;SDS011;13848;49.018;12.078;2023-12-07T10:23:58;14.20;;;9.35;;
26082;SDS011;13848;49.018;12.078;2023-12-07T10:26:24;15.07;;;9.35;;
26082;SDS011;13848;49.018;12.078;2023-12-07T10:28:50;14.07;;;9.75;;
26082;SDS011;13848;49.018;12.078;2023-12-07T10:31:17;12.77;;;8.90;;
26082;SDS011;13848;49.018;12.078;2023-12-07T10:33:46;14.18;;;9.77;;
26082;SDS011;13848;49.018;12.078;2023-12-07T10:36:13;13.82;;;9.35;;
26082;SDS011;13848;49.018;12.078;2023-12-07T10:38:39;14.88;;;10.25;;
26082;SDS011;13848;49.018;12.078;2023-12-07T10:41:06;16.90;;;10.40;;
26082;SDS011;13848;49.018;12.078;2023-12-07T10:43:36;14.55;;;10.25;;
26082;SDS011;13848;49.018;12.078;2023-12-07T10:46:03;13.75;;;10.18;;
26082;SDS011;13848;49.018;12.078;2023-12-07T10:48:30;14.77;;;10.68;;
26082;SDS011;13848;49.018;12.078;2023-12-07T10:50:57;13.75;;;10.07;;
26082;SDS011;13848;49.018;12.078;2023-12-07T10:53:26;13.52;;;9.88;;
26082;SDS011;13848;49.018;12.078;2023-12-07T10:55:55;11.50;;;9.23;;
26082;SDS011;13848;49.018;12.078;2023-12-07T10:58:23;14.45;;;10.40;;
26082;SDS011;13848;49.018;12.078;2023-12-07T11:00:49;12.82;;;8.63;;
26082;SDS011;13848;49.018;12.078;2023-12-07T11:03:17;12.45;;;9.65;;
26082;SDS011;13848;49.018;12.078;2023-12-07T11:05:44;12.48;;;9.50;;
26082;SDS011;13848;49.018;12.078;2023-12-07T11:08:11;9.85;;;8.07;;
26082;SDS011;13848;49.018;12.078;2023-12-07T11:10:45;11.55;;;8.10;;
26082;SDS011;13848;49.018;12.078;2023-12-07T11:13:24;10.93;;;8.07;;
26082;SDS011;13848;49.018;12.078;2023-12-07T11:15:55;9.35;;;7.90;;
26082;SDS011;13848;49.018;12.078;2023-12-07T11:18:24;12.32;;;8.85;;
26082;SDS011;13848;49.018;12.078;2023-12-07T11:20:50;12.20;;;9.38;;
26082;SDS011;13848;49.018;12.078;2023-12-07T11:23:16;12.23;;;9.60;;
26082;SDS011;13848;49.018;12.078;2023-12-07T11:25:42;12.38;;;8.95;;
26082;SDS011;13848;49.018;12.078;2023-12-07T11:28:10;13.15;;;9.85;;
26082;SDS011;13848;49.018;12.078;2023-12-07T11:30:38;17.75;;;12.65;;
26082;SDS011;13848;49.018;12.078;2023-12-07T11:33:07;18.60;;;12.70;;
26082;SDS011;13848;49.018;12.078;2023-12-07T11:35:40;17.85;;;11.82;;
26082;SDS011;13848;49.018;12.078;2023-12-07T11:38:30;18.58;;;12.25;;
26082;SDS011;13848;49.018;12.078;2023-12-07T11:40:56;17.80;;;11.95;;
26082;SDS011;13848;49.018;12.078;2023-12-07T11:43:30;22.13;;;15.02;;
26082;SDS011;13848;49.018;12.078;2023-12-07T11:46:03;23.95;;;14.55;;
26082;SDS011;13848;49.018;12.078;2023-12-07T11:48:29;23.33;;;15.18;;
26082;SDS011;13848;49.018;12.078;2023-12-07T11:50:56;26.40;;;15.30;;
26082;SDS011;13848;49.018;12.078;2023-12-07T11:53:23;23.65;;;14.32;;
26082;SDS011;13848;49.018;12.078;2023-12-07T11:55:50;25.23;;;15.20;;
26082;SDS011;13848;49.018;12.078;2023-12-07T11:58:17;23.77;;;14.48;;
26082;SDS011;13848;49.018;12.078;2023-12-07T12:00:43;23.17;;;14.38;;
26082;SDS011;13848;49.018;12.078;2023-12-07T12:03:11;26.20;;;14.32;;
26082;SDS011;13848;49.018;12.078;2023-12-07T12:05:37;22.70;;;13.93;;
26082;SDS011;13848;49.018;12.078;2023-12-07T12:08:04;23.65;;;15.20;;
26082;SDS011;13848;49.018;12.078;2023-12-07T12:10:30;27.75;;;15.57;;
26082;SDS011;13848;49.018;12.078;2023-12-07T12:12:56;25.13;;;14.82;;
26082;SDS011;13848;49.018;12.078;2023-12-07T12:15:22;24.75;;;14.95;;
26082;SDS011;13848;49.018;12.078;2023-12-07T12:17:48;25.38;;;15.48;;
26082;SDS011;13848;49.018;12.078;2023-12-07T12:20:15;29.95;;;16.02;;
26082;SDS011;13848;49.018;12.078;2023-12-07T12:22:41;26.55;;;13.73;;
26082;SDS011;13848;49.018;12.078;2023-12-07T12:25:07;25.60;;;14.48;;
26082;SDS011;13848;49.018;12.078;2023-12-07T12:27:34;31.20;;;16.15;;
26082;SDS011;13848;49.018;12.078;2023-12-07T12:30:01;28.15;;;15.02;;
26082;SDS011;13848;49.018;12.078;2023-12-07T12:32:27;28.67;;;15.73;;
26082;SDS011;13848;49.018;12.078;2023-12-07T12:34:58;26.35;;;15.95;;
26082;SDS011;13848;49.018;12.078;2023-12-07T12:37:26;27.10;;;15.63;;
26082;SDS011;13848;49.018;12.078;2023-12-07T12:39:52;29.90;;;16.20;;
26082;SDS011;13848;49.018;12.078;2023-12-07T12:42:18;28.17;;;15.48;;
26082;SDS011;13848;49.018;12.078;2023-12-07T12:44:44;29.77;;;16.52;;
26082;SDS011;13848;49.018;12.078;2023-12-07T12:47:10;29.50;;;16.23;;
26082;SDS011;13848;49.018;12.078;2023-12-07T12:49:36;26.88;;;15.40;;
26082;SDS011;13848;49.018;12.078;2023-12-07T12:52:03;26.25;;;14.82;;
26082;SDS011;13848;49.018;12.078;2023-12-07T12:54:31;29.88;;;16.23;;
26082;SDS011;13848;49.018;12.078;2023-12-07T12:56:57;30.10;;;15.63;;
26082;SDS011;13848;49.018;12.078;2023-12-07T12:59:23;29.52;;;16.50;;
26082;SDS011;13848;49.018;12.078;2023-12-07T13:01:50;28.88;;;15.80;;
26082;SDS011;13848;49.018;12.078;2023-12-07T13:04:16;27.67;;;15.82;;
26082;SDS011;13848;49.018;12.078;2023-12-07T13:06:42;29.17;;;15.38;;
26082;SDS011;13848;49.018;12.078;2023-12-07T13:09:08;31.35;;;16.48;;
26082;SDS011;13848;49.018;12.078;2023-12-07T13:11:35;30.60;;;16.92;;
26082;SDS011;13848;49.018;12.078;2023-12-07T13:14:01;32.70;;;17.45;;
26082;SDS011;13848;49.018;12.078;2023-12-07T13:16:27;31.27;;;16.42;;
26082;SDS011;13848;49.018;12.078;2023-12-07T13:18:53;30.88;;;16.58;;
26082;SDS011;13848;49.018;12.078;2023-12-07T13:21:19;29.25;;;16.80;;
26082;SDS011;13848;49.018;12.078;2023-12-07T13:23:45;32.45;;;16.65;;
26082;SDS011;13848;49.018;12.078;2023-12-07T13:26:10;28.73;;;16.58;;
26082;SDS011;13848;49.018;12.078;2023-12-07T13:28:38;27.48;;;16.30;;
26082;SDS011;13848;49.018;12.078;2023-12-07T13:31:04;27.95;;;15.50;;
26082;SDS011;13848;49.018;12.078;2023-12-07T13:33:30;27.08;;;14.85;;
26082;SDS011;13848;49.018;12.078;2023-12-07T13:35:56;26.17;;;14.63;;
26082;SDS011;13848;49.018;12.078;2023-12-07T13:38:22;28.88;;;16.60;;
26082;SDS011;13848;49.018;12.078;2023-12-07T13:40:48;24.42;;;14.48;;
26082;SDS011;13848;49.018;12.078;2023-12-07T13:43:14;26.90;;;15.20;;
26082;SDS011;13848;49.018;12.078;2023-12-07T13:45:41;23.42;;;14.52;;
26082;SDS011;13848;49.018;12.078;2023-12-07T13:48:07;27.90;;;18.17;;
26082;SDS011;13848;49.018;12.078;2023-12-07T13:50:33;23.88;;;14.60;;
26082;SDS011;13848;49.018;12.078;2023-12-07T13:52:59;25.08;;;14.65;;
26082;SDS011;13848;49.018;12.078;2023-12-07T13:55:25;19.67;;;12.55;;
26082;SDS011;13848;49.018;12.078;2023-12-07T13:57:51;20.70;;;12.88;;
26082;SDS011;13848;49.018;12.078;2023-12-07T14:00:17;20.08;;;12.45;;
26082;SDS011;13848;49.018;12.078;2023-12-07T14:02:44;22.17;;;12.07;;
26082;SDS011;13848;49.018;12.078;2023-12-07T14:05:10;22.67;;;12.77;;
26082;SDS011;13848;49.018;12.078;2023-12-07T14:07:36;21.27;;;12.80;;
26082;SDS011;13848;49.018;12.078;2023-12-07T14:10:02;22.52;;;14.20;;
26082;SDS011;13848;49.018;12.078;2023-12-07T14:12:28;20.60;;;13.30;;